Disclaimer

Please do not use the information listed here in-flight or in-navigation, as they are not provided to us by the airports but are provided by volunteers, so they might be outdated.

Search


Regions


Airport information page

No radio frequency information is available.

Airport informations:
Latitude: 55° 44' 32.40" N
Longitude: 120° 10' 58.80" W
Elevation: 2148 feet - 655 meters
Operating hours: N/A
Operating agency: Municipal
Timezone: Second Sunday in March at 0200 to first Sunday in November at 0200 local time (Exception Arizona and that portion of Indiana in the Eastern Time Zone)
Fuel: Jet B, Wide cut turbine fuel, Without icing inhibitor.

JP-4, Wide cut turbine fuel MIL Spec T-5624

100/130 octane gasoline, leaded, MIL-L-5572F (GREEN)

Runway information:
06/24 - 5000 x 150 feet< - >1524 x 46 meters

Recent METARs:
CYDQ 190200Z AUTO 00000KT 9SM CLR 00/M01 A2996 RMK SLP176
CYDQ 190200Z AUTO 00000KT 9SM CLR 00/M01 A2996 RMK SLP176
CYDQ 190300Z AUTO 21003KT 130V230 9SM CLR 04/M00 A2995 RMK SLP170

Airport on the map: